createdAt,value
2022-08-28T00:01:33.000Z,16.79
2022-08-28T00:04:04.604Z,16.79
2022-08-28T00:06:34.100Z,16.80
2022-08-28T00:09:03.823Z,16.78
2022-08-28T00:11:33.590Z,16.74
2022-08-28T00:14:09.274Z,16.69
2022-08-28T00:16:39.152Z,16.66
2022-08-28T00:19:10.946Z,16.68
2022-08-28T00:21:40.688Z,16.68
2022-08-28T00:24:11.096Z,16.69
2022-08-28T00:26:58.776Z,16.72
2022-08-28T00:29:29.135Z,16.76
2022-08-28T00:31:58.820Z,16.75
2022-08-28T00:34:33.312Z,16.72
2022-08-28T00:37:03.521Z,16.73
2022-08-28T00:39:37.226Z,16.73
2022-08-28T00:42:07.982Z,16.72
2022-08-28T00:44:39.173Z,16.73
2022-08-28T00:47:10.175Z,16.75
2022-08-28T00:49:51.051Z,16.78
2022-08-28T00:52:22.132Z,16.81
2022-08-28T00:54:59.100Z,16.83
2022-08-28T00:57:36.125Z,16.86
2022-08-28T01:00:09.065Z,16.88
2022-08-28T01:02:38.811Z,16.90
2022-08-28T01:05:11.528Z,16.90
2022-08-28T01:07:41.961Z,16.90
2022-08-28T01:10:18.166Z,16.87
2022-08-28T01:12:49.899Z,16.87
2022-08-28T01:15:24.888Z,16.87
2022-08-28T01:18:05.986Z,16.89
2022-08-28T01:20:50.415Z,16.90
2022-08-28T01:23:46.940Z,16.87
2022-08-28T01:26:16.473Z,16.84
2022-08-28T01:28:46.285Z,16.81
2022-08-28T01:31:17.809Z,16.79
2022-08-28T01:33:49.406Z,16.79
2022-08-28T01:36:20.612Z,16.78
2022-08-28T01:38:59.594Z,16.76
2022-08-28T01:41:29.606Z,16.76
2022-08-28T01:43:59.929Z,16.78
2022-08-28T01:46:31.639Z,16.76
2022-08-28T01:49:01.475Z,16.72
2022-08-28T01:51:35.187Z,16.68
2022-08-28T01:54:10.682Z,16.65
2022-08-28T01:56:44.893Z,16.64
2022-08-28T01:59:16.483Z,16.61
2022-08-28T02:01:46.073Z,16.60
2022-08-28T02:04:16.468Z,16.61
2022-08-28T02:06:46.152Z,16.62
2022-08-28T02:09:17.711Z,16.61
2022-08-28T02:11:47.334Z,16.59
2022-08-28T02:14:17.259Z,16.58
2022-08-28T02:16:47.176Z,16.59
2022-08-28T02:19:16.669Z,16.59
2022-08-28T02:21:46.253Z,16.58
2022-08-28T02:24:18.045Z,16.59
2022-08-28T02:26:47.652Z,16.59
2022-08-28T02:29:18.549Z,16.58
2022-08-28T02:31:48.014Z,16.58
2022-08-28T02:34:17.493Z,16.58
2022-08-28T02:36:47.897Z,16.57
2022-08-28T02:39:18.907Z,16.55
2022-08-28T02:41:48.539Z,16.54
2022-08-28T02:44:18.251Z,16.54
2022-08-28T02:46:47.770Z,16.54
2022-08-28T02:49:17.288Z,16.54
2022-08-28T02:51:46.837Z,16.51
2022-08-28T02:54:16.371Z,16.51
2022-08-28T02:56:49.665Z,16.51
2022-08-28T02:59:19.327Z,16.53
2022-08-28T03:01:49.412Z,16.55
2022-08-28T03:04:19.480Z,16.57
2022-08-28T03:06:49.813Z,16.59
2022-08-28T03:09:19.284Z,16.58
2022-08-28T03:11:50.116Z,16.59
2022-08-28T03:14:19.969Z,16.59
2022-08-28T03:16:50.428Z,16.59
2022-08-28T03:19:20.322Z,16.59
2022-08-28T03:21:49.900Z,16.57
2022-08-28T03:24:21.520Z,16.57
2022-08-28T03:26:52.683Z,16.56
2022-08-28T03:29:22.161Z,16.56
2022-08-28T03:31:51.695Z,16.56
2022-08-28T03:34:21.248Z,16.54
2022-08-28T03:36:50.884Z,16.53
2022-08-28T03:39:20.453Z,16.54
2022-08-28T03:41:51.452Z,16.55
2022-08-28T03:44:20.959Z,16.55
2022-08-28T03:46:50.921Z,16.54
2022-08-28T03:49:21.181Z,16.53
2022-08-28T03:51:50.685Z,16.53
2022-08-28T03:54:20.125Z,16.53
2022-08-28T03:56:52.059Z,16.54
2022-08-28T03:59:21.636Z,16.53
2022-08-28T04:01:56.160Z,16.54
2022-08-28T04:04:26.141Z,16.51
2022-08-28T04:06:55.628Z,16.51
2022-08-28T04:09:25.223Z,16.48
2022-08-28T04:11:56.065Z,16.48
2022-08-28T04:14:25.588Z,16.47
2022-08-28T04:16:57.589Z,16.47
2022-08-28T04:19:35.247Z,16.48
2022-08-28T04:22:05.568Z,16.48
2022-08-28T04:24:35.569Z,16.48
2022-08-28T04:27:06.770Z,16.49
2022-08-28T04:29:36.365Z,16.49
2022-08-28T04:32:06.608Z,16.51
2022-08-28T04:34:39.212Z,16.52
2022-08-28T04:37:09.568Z,16.53
2022-08-28T04:39:39.911Z,16.56
2022-08-28T04:42:11.348Z,16.55
2022-08-28T04:44:41.032Z,16.56
2022-08-28T04:47:11.052Z,16.56
2022-08-28T04:49:42.003Z,16.59
2022-08-28T04:52:11.704Z,16.60
2022-08-28T04:54:41.405Z,16.62
2022-08-28T04:57:12.861Z,16.63
2022-08-28T04:59:44.951Z,16.65
2022-08-28T05:02:14.547Z,16.66
2022-08-28T05:04:44.092Z,16.67
2022-08-28T05:07:13.615Z,16.68
2022-08-28T05:09:43.124Z,16.69
2022-08-28T05:12:17.244Z,16.71
2022-08-28T05:14:46.777Z,16.72
2022-08-28T05:17:18.470Z,16.71
2022-08-28T05:19:49.545Z,16.69
2022-08-28T05:22:23.297Z,16.67
2022-08-28T05:24:53.720Z,16.68
2022-08-28T05:27:27.896Z,16.67
2022-08-28T05:30:01.927Z,16.67
2022-08-28T05:32:34.495Z,16.68
2022-08-28T05:35:07.839Z,16.67
2022-08-28T05:37:37.472Z,16.70
2022-08-28T05:40:10.513Z,16.70
2022-08-28T05:42:41.384Z,16.71
2022-08-28T05:45:11.833Z,16.70
2022-08-28T05:47:41.292Z,16.70
2022-08-28T05:50:13.609Z,16.71
2022-08-28T05:52:45.967Z,16.73
2022-08-28T05:55:15.741Z,16.78
2022-08-28T05:57:46.641Z,16.80
2022-08-28T06:00:18.402Z,16.81
2022-08-28T06:02:47.890Z,16.83
2022-08-28T06:05:20.040Z,16.85
2022-08-28T06:07:49.752Z,16.90
2022-08-28T06:10:19.412Z,16.93
2022-08-28T06:12:50.493Z,16.92
2022-08-28T06:15:19.976Z,16.95
2022-08-28T06:17:49.810Z,16.96
2022-08-28T06:20:19.432Z,16.97
2022-08-28T06:22:51.870Z,16.94
2022-08-28T06:25:21.333Z,16.95
2022-08-28T06:27:52.262Z,16.97
2022-08-28T06:30:21.777Z,16.98
2022-08-28T06:32:51.368Z,16.99
2022-08-28T06:35:21.771Z,17.00
2022-08-28T06:37:51.315Z,17.02
2022-08-28T06:40:20.875Z,17.05
2022-08-28T06:42:51.921Z,17.09
2022-08-28T06:45:21.575Z,17.13
2022-08-28T06:47:51.085Z,17.15
2022-08-28T06:50:23.165Z,17.18
2022-08-28T06:52:52.657Z,17.21
2022-08-28T06:55:22.126Z,17.21
2022-08-28T06:57:53.032Z,17.22
2022-08-28T07:00:24.181Z,17.21
2022-08-28T07:02:53.804Z,17.23
2022-08-28T07:05:23.625Z,17.25
2022-08-28T07:07:53.396Z,17.28
2022-08-28T07:10:24.245Z,17.31
2022-08-28T07:12:55.418Z,17.33
2022-08-28T07:15:24.956Z,17.36
2022-08-28T07:17:54.536Z,17.40
2022-08-28T07:20:24.363Z,17.43
2022-08-28T07:22:54.185Z,17.46
2022-08-28T07:25:29.344Z,17.53
2022-08-28T07:28:00.978Z,17.58
2022-08-28T07:30:30.642Z,17.63
2022-08-28T07:33:00.145Z,17.64
2022-08-28T07:35:29.722Z,17.69
2022-08-28T07:37:59.277Z,17.69
2022-08-28T07:40:28.813Z,17.73
2022-08-28T07:43:17.436Z,17.74
2022-08-28T07:45:46.965Z,17.74
2022-08-28T07:48:16.790Z,17.74
2022-08-28T07:50:50.826Z,17.75
2022-08-28T07:53:20.472Z,17.72
2022-08-28T07:55:52.082Z,17.67
2022-08-28T07:58:25.321Z,17.64
2022-08-28T08:00:55.800Z,17.61
2022-08-28T08:03:25.635Z,17.60
2022-08-28T08:05:57.828Z,17.59
2022-08-28T08:08:27.915Z,17.55
2022-08-28T08:11:01.243Z,17.54
2022-08-28T08:13:33.719Z,17.53
2022-08-28T08:16:08.199Z,17.52
2022-08-28T08:18:37.998Z,17.51
2022-08-28T08:21:12.172Z,17.50
2022-08-28T08:23:42.637Z,17.50
2022-08-28T08:26:16.601Z,17.51
2022-08-28T08:28:50.420Z,17.50
2022-08-28T08:31:24.634Z,17.50
2022-08-28T08:34:01.367Z,17.49
2022-08-28T08:36:35.735Z,17.49
2022-08-28T08:39:09.628Z,17.53
2022-08-28T08:41:48.054Z,17.55
2022-08-28T08:44:33.491Z,17.56
2022-08-28T08:47:15.242Z,17.59
2022-08-28T08:49:54.173Z,17.61
2022-08-28T08:52:39.884Z,17.63
2022-08-28T08:55:24.874Z,17.67
2022-08-28T08:58:03.967Z,17.72
2022-08-28T09:00:44.874Z,17.77
2022-08-28T09:03:22.608Z,17.83
2022-08-28T09:05:57.366Z,17.86
2022-08-28T09:08:41.577Z,17.93
2022-08-28T09:11:31.627Z,17.99
2022-08-28T09:14:08.573Z,18.05
2022-08-28T09:16:45.694Z,18.09
2022-08-28T09:19:22.122Z,18.12
2022-08-28T09:21:53.004Z,18.13
2022-08-28T09:24:28.323Z,18.14
2022-08-28T09:27:04.056Z,18.15
2022-08-28T09:29:37.652Z,18.14
2022-08-28T09:32:24.771Z,18.13
2022-08-28T09:35:13.337Z,18.12
2022-08-28T09:37:45.114Z,18.11
2022-08-28T09:40:26.081Z,18.13
2022-08-28T09:43:28.225Z,18.17
2022-08-28T09:46:04.020Z,18.22
2022-08-28T09:48:39.284Z,18.24
2022-08-28T09:51:12.468Z,18.24
2022-08-28T09:54:01.335Z,18.29
2022-08-28T09:56:39.306Z,18.32
2022-08-28T09:59:13.701Z,18.36
2022-08-28T10:02:01.192Z,18.38
2022-08-28T10:04:52.625Z,18.33
2022-08-28T10:07:39.109Z,18.29
2022-08-28T10:10:29.772Z,18.26
2022-08-28T10:13:11.379Z,18.24
2022-08-28T10:16:09.511Z,18.22
2022-08-28T10:18:47.141Z,18.23
2022-08-28T10:21:28.252Z,18.25
2022-08-28T10:24:31.215Z,18.25
2022-08-28T10:27:14.069Z,18.28
2022-08-28T10:30:07.772Z,18.30
2022-08-28T10:33:07.437Z,18.30
2022-08-28T10:35:52.140Z,18.32
2022-08-28T10:38:36.640Z,18.35
2022-08-28T10:41:12.037Z,18.34
2022-08-28T10:43:48.198Z,18.29
2022-08-28T10:46:34.907Z,18.29
2022-08-28T10:49:09.866Z,18.29
2022-08-28T10:51:47.433Z,18.29
2022-08-28T10:54:26.849Z,18.31
2022-08-28T10:57:07.046Z,18.30
2022-08-28T10:59:42.055Z,18.33
2022-08-28T11:02:16.461Z,18.38
2022-08-28T11:04:49.256Z,18.43
2022-08-28T11:07:31.477Z,18.45
2022-08-28T11:10:42.010Z,18.46
2022-08-28T11:13:11.904Z,18.47
2022-08-28T11:15:53.317Z,18.53
2022-08-28T11:19:28.217Z,18.56
2022-08-28T11:22:08.788Z,18.58
2022-08-28T11:24:52.873Z,18.60
2022-08-28T11:27:31.309Z,18.59
2022-08-28T11:30:34.395Z,18.58
2022-08-28T11:33:38.106Z,18.62
2022-08-28T11:36:14.529Z,18.65
2022-08-28T11:39:21.916Z,18.67
2022-08-28T11:42:38.548Z,18.72
2022-08-28T11:45:09.461Z,18.73
2022-08-28T11:47:52.126Z,18.74
2022-08-28T11:50:53.292Z,18.74
2022-08-28T11:53:47.174Z,18.77
2022-08-28T11:56:51.964Z,18.77
2022-08-28T12:00:06.569Z,18.77
2022-08-28T12:02:53.224Z,18.80
2022-08-28T12:05:52.204Z,18.77
2022-08-28T12:09:12.865Z,18.83
2022-08-28T12:11:59.265Z,18.89
2022-08-28T12:15:08.531Z,18.83
2022-08-28T12:17:54.225Z,18.83
2022-08-28T12:21:01.090Z,18.89
2022-08-28T12:23:44.450Z,18.93
2022-08-28T12:26:26.187Z,18.99
2022-08-28T12:28:59.565Z,18.91
2022-08-28T12:32:21.966Z,18.88
2022-08-28T12:35:16.519Z,18.92
2022-08-28T12:38:01.001Z,18.93
2022-08-28T12:40:53.488Z,19.05
2022-08-28T12:43:40.938Z,19.01
2022-08-28T12:46:23.492Z,18.99
2022-08-28T12:48:58.636Z,19.03
2022-08-28T12:51:33.545Z,19.07
2022-08-28T12:54:07.611Z,19.16
2022-08-28T12:56:39.623Z,19.30
2022-08-28T12:59:27.187Z,19.37
2022-08-28T13:02:05.724Z,19.46
2022-08-28T13:04:40.453Z,19.51
2022-08-28T13:07:16.022Z,19.57
2022-08-28T13:09:52.566Z,19.65
2022-08-28T13:12:32.013Z,19.72
2022-08-28T13:15:53.298Z,19.83
2022-08-28T13:18:55.421Z,19.91
2022-08-28T13:21:35.325Z,20.00
2022-08-28T13:24:38.554Z,20.09
2022-08-28T13:27:24.762Z,20.02
2022-08-28T13:30:28.638Z,19.93
2022-08-28T13:33:04.459Z,20.02
2022-08-28T13:35:41.169Z,20.11
2022-08-28T13:38:16.008Z,20.24
2022-08-28T13:40:57.984Z,20.30
2022-08-28T13:43:44.023Z,20.39
2022-08-28T13:46:13.757Z,20.34
2022-08-28T13:48:44.825Z,20.34
2022-08-28T13:51:20.827Z,20.33
2022-08-28T13:53:51.328Z,20.37
2022-08-28T13:56:22.124Z,20.36
2022-08-28T13:58:57.524Z,20.43
2022-08-28T14:01:48.143Z,20.51
2022-08-28T14:04:18.280Z,20.56
2022-08-28T14:06:47.812Z,20.64
2022-08-28T14:09:17.711Z,20.86
2022-08-28T14:11:49.616Z,21.18
2022-08-28T14:14:19.122Z,21.60
2022-08-28T14:16:50.322Z,21.78
2022-08-28T14:19:21.901Z,22.02
2022-08-28T14:21:51.498Z,22.68
2022-08-28T14:24:21.164Z,23.42
2022-08-28T14:26:54.844Z,23.87
2022-08-28T14:29:24.349Z,23.94
2022-08-28T14:31:53.977Z,24.05
2022-08-28T14:34:25.113Z,24.49
2022-08-28T14:36:55.996Z,24.91
2022-08-28T14:39:28.642Z,25.38
2022-08-28T14:41:58.663Z,25.79
2022-08-28T14:44:28.243Z,25.75
2022-08-28T14:46:58.147Z,25.46
2022-08-28T14:49:29.257Z,25.45
2022-08-28T14:51:58.769Z,25.53
2022-08-28T14:54:28.557Z,25.46
2022-08-28T14:56:58.202Z,25.76
2022-08-28T14:59:32.160Z,25.96
2022-08-28T15:02:02.467Z,25.94
2022-08-28T15:04:37.763Z,25.79
2022-08-28T15:07:12.816Z,25.48
2022-08-28T15:09:43.968Z,25.09
2022-08-28T15:12:13.549Z,24.94
2022-08-28T15:14:57.203Z,24.60
2022-08-28T15:17:33.511Z,24.55
2022-08-28T15:20:08.003Z,24.33
2022-08-28T15:22:37.557Z,24.19
2022-08-28T15:25:08.342Z,24.04
2022-08-28T15:27:38.532Z,23.82
2022-08-28T15:30:11.451Z,23.63
2022-08-28T15:32:42.926Z,23.58
2022-08-28T15:35:15.353Z,23.50
2022-08-28T15:37:45.078Z,23.43
2022-08-28T15:40:35.058Z,23.44
2022-08-28T15:43:04.641Z,23.69
2022-08-28T15:45:38.267Z,23.91
2022-08-28T15:48:08.320Z,24.04
2022-08-28T15:50:40.184Z,24.10
2022-08-28T15:53:11.019Z,24.20
2022-08-28T15:55:40.578Z,24.22
2022-08-28T15:58:13.982Z,24.26
2022-08-28T16:00:44.072Z,24.18
2022-08-28T16:03:13.888Z,24.09
2022-08-28T16:05:45.377Z,23.97
2022-08-28T16:08:14.916Z,23.79
2022-08-28T16:10:49.853Z,23.51
2022-08-28T16:13:22.104Z,23.33
2022-08-28T16:15:51.789Z,23.11
2022-08-28T16:18:21.690Z,22.84
2022-08-28T16:20:52.630Z,22.66
2022-08-28T16:23:22.152Z,22.51
2022-08-28T16:25:51.714Z,22.37
2022-08-28T16:28:21.260Z,22.19
2022-08-28T16:30:51.097Z,22.01
2022-08-28T16:33:22.248Z,21.84
2022-08-28T16:35:56.290Z,21.71
2022-08-28T16:38:26.829Z,21.58
2022-08-28T16:40:56.363Z,21.49
2022-08-28T16:43:26.129Z,21.40
2022-08-28T16:45:56.265Z,21.34
2022-08-28T16:48:25.913Z,21.22
2022-08-28T16:50:57.069Z,21.14
2022-08-28T16:53:27.342Z,21.08
2022-08-28T16:55:59.028Z,21.02
2022-08-28T16:58:28.866Z,20.94
2022-08-28T17:00:58.486Z,20.85
2022-08-28T17:03:28.417Z,20.74
2022-08-28T17:06:09.793Z,20.61
2022-08-28T17:08:39.722Z,20.52
2022-08-28T17:11:10.384Z,20.43
2022-08-28T17:13:40.174Z,20.35
2022-08-28T17:16:09.953Z,20.29
2022-08-28T17:18:48.138Z,20.26
2022-08-28T17:21:55.673Z,20.21
2022-08-28T17:24:25.327Z,20.18
2022-08-28T17:26:55.242Z,20.17
2022-08-28T17:29:24.873Z,20.17
2022-08-28T17:31:54.425Z,20.13
2022-08-28T17:34:28.082Z,20.04
2022-08-28T17:37:01.192Z,19.99
2022-08-28T17:39:30.717Z,19.96
2022-08-28T17:42:00.305Z,19.89
2022-08-28T17:44:29.799Z,19.82
2022-08-28T17:46:59.393Z,19.78
2022-08-28T17:49:29.069Z,19.76
2022-08-28T17:51:59.932Z,19.75
2022-08-28T17:54:29.976Z,19.69
2022-08-28T17:56:59.685Z,19.61
2022-08-28T17:59:29.828Z,19.51
2022-08-28T18:01:59.540Z,19.45
2022-08-28T18:04:29.313Z,19.42
2022-08-28T18:07:01.805Z,19.38
2022-08-28T18:09:31.329Z,19.34
2022-08-28T18:12:00.959Z,19.27
2022-08-28T18:14:31.190Z,19.21
2022-08-28T18:17:00.974Z,19.11
2022-08-28T18:19:30.673Z,19.03
2022-08-28T18:22:01.545Z,18.93
2022-08-28T18:24:31.117Z,18.83
2022-08-28T18:27:01.969Z,18.75
2022-08-28T18:29:31.909Z,18.65
2022-08-28T18:32:01.955Z,18.55
2022-08-28T18:34:31.973Z,18.46
2022-08-28T18:37:02.870Z,18.38
2022-08-28T18:39:32.472Z,18.30
2022-08-28T18:42:02.622Z,18.26
2022-08-28T18:44:32.492Z,18.27
2022-08-28T18:47:02.708Z,18.18
2022-08-28T18:49:32.292Z,18.08
2022-08-28T18:52:03.433Z,17.98
2022-08-28T18:54:33.105Z,17.88
2022-08-28T18:57:04.183Z,17.83
2022-08-28T18:59:34.420Z,17.76
2022-08-28T19:02:04.042Z,17.69
2022-08-28T19:04:34.023Z,17.62
2022-08-28T19:07:05.321Z,17.58
2022-08-28T19:09:35.089Z,17.51
2022-08-28T19:12:06.551Z,17.44
2022-08-28T19:14:36.913Z,17.39
2022-08-28T19:17:06.622Z,17.35
2022-08-28T19:19:36.120Z,17.30
2022-08-28T19:22:07.700Z,17.26
2022-08-28T19:24:37.325Z,17.20
2022-08-28T19:27:06.984Z,17.16
2022-08-28T19:29:36.803Z,17.11
2022-08-28T19:32:08.164Z,17.06
2022-08-28T19:34:38.108Z,16.99
2022-08-28T19:37:12.197Z,16.94
2022-08-28T19:39:41.742Z,16.86
2022-08-28T19:42:17.242Z,16.80
2022-08-28T19:44:51.022Z,16.73
2022-08-28T19:47:24.537Z,16.68
2022-08-28T19:49:55.314Z,16.64
2022-08-28T19:52:28.052Z,16.58
2022-08-28T19:54:57.486Z,16.55
2022-08-28T19:57:27.046Z,16.52
2022-08-28T19:59:56.561Z,16.47
2022-08-28T20:02:26.103Z,16.44
2022-08-28T20:04:55.740Z,16.41
2022-08-28T20:07:26.817Z,16.39
2022-08-28T20:09:56.399Z,16.36
2022-08-28T20:12:26.229Z,16.33
2022-08-28T20:15:00.059Z,16.31
2022-08-28T20:17:33.117Z,16.31
2022-08-28T20:20:06.269Z,16.32
2022-08-28T20:22:38.446Z,16.33
2022-08-28T20:25:10.350Z,16.33
2022-08-28T20:27:40.328Z,16.29
2022-08-28T20:30:11.491Z,16.24
2022-08-28T20:32:41.571Z,16.19
2022-08-28T20:35:15.333Z,16.13
2022-08-28T20:37:46.635Z,16.09
2022-08-28T20:40:19.925Z,16.03
2022-08-28T20:42:50.197Z,16.00
2022-08-28T20:45:22.196Z,15.96
2022-08-28T20:47:52.608Z,15.91
2022-08-28T20:50:25.540Z,15.87
2022-08-28T20:52:57.115Z,15.81
2022-08-28T20:55:27.377Z,15.77
2022-08-28T20:57:57.189Z,15.72
2022-08-28T21:00:26.968Z,15.69
2022-08-28T21:02:56.437Z,15.65
2022-08-28T21:05:26.345Z,15.60
2022-08-28T21:07:57.268Z,15.57
2022-08-28T21:10:27.022Z,15.54
2022-08-28T21:12:56.475Z,15.52
2022-08-28T21:15:26.081Z,15.48
2022-08-28T21:17:55.621Z,15.44
2022-08-28T21:20:25.943Z,15.40
2022-08-28T21:22:58.570Z,15.37
2022-08-28T21:25:28.233Z,15.33
2022-08-28T21:27:57.756Z,15.30
2022-08-28T21:30:30.922Z,15.29
2022-08-28T21:33:00.419Z,15.23
2022-08-28T21:35:30.110Z,15.19
2022-08-28T21:38:01.118Z,15.17
2022-08-28T21:40:30.620Z,15.14
2022-08-28T21:43:01.250Z,15.09
2022-08-28T21:45:30.727Z,15.07
2022-08-28T21:48:00.686Z,15.04
2022-08-28T21:50:30.250Z,15.01
2022-08-28T21:53:02.285Z,14.99
2022-08-28T21:55:31.797Z,14.96
2022-08-28T21:58:01.320Z,14.93
2022-08-28T22:00:31.400Z,14.88
2022-08-28T22:03:01.289Z,14.83
2022-08-28T22:05:31.027Z,14.80
2022-08-28T22:08:01.910Z,14.77
2022-08-28T22:10:31.892Z,14.74
2022-08-28T22:13:01.456Z,14.73
2022-08-28T22:15:31.296Z,14.70
2022-08-28T22:18:01.747Z,14.69
2022-08-28T22:20:31.605Z,14.69
2022-08-28T22:23:11.068Z,14.67
2022-08-28T22:25:43.240Z,14.64
2022-08-28T22:28:12.938Z,14.63
2022-08-28T22:30:43.088Z,14.63
2022-08-28T22:33:12.845Z,14.64
2022-08-28T22:35:42.375Z,14.65
2022-08-28T22:38:13.407Z,14.66
2022-08-28T22:40:43.096Z,14.63
2022-08-28T22:43:12.685Z,14.59
2022-08-28T22:45:43.469Z,14.54
2022-08-28T22:48:14.406Z,14.52
2022-08-28T22:50:45.704Z,14.50
2022-08-28T22:53:18.404Z,14.45
2022-08-28T22:55:47.917Z,14.44
2022-08-28T22:58:17.449Z,14.43
2022-08-28T23:00:47.150Z,14.40
2022-08-28T23:03:16.987Z,14.36
2022-08-28T23:05:46.849Z,14.32
2022-08-28T23:08:17.964Z,14.29
2022-08-28T23:10:58.889Z,14.27
2022-08-28T23:13:29.337Z,14.26
2022-08-28T23:15:59.608Z,14.23
2022-08-28T23:18:29.796Z,14.21
2022-08-28T23:21:01.204Z,14.18
2022-08-28T23:23:32.256Z,14.13
2022-08-28T23:26:01.780Z,14.12
2022-08-28T23:28:31.357Z,14.10
2022-08-28T23:31:00.836Z,14.05
2022-08-28T23:33:30.374Z,14.02
2022-08-28T23:36:00.111Z,14.01
2022-08-28T23:38:31.229Z,13.99
2022-08-28T23:41:02.025Z,13.99
2022-08-28T23:43:32.877Z,13.99
2022-08-28T23:46:02.428Z,13.98
2022-08-28T23:48:32.090Z,13.95
2022-08-28T23:51:01.622Z,13.94
2022-08-28T23:53:32.505Z,13.89
2022-08-28T23:56:05.824Z,13.87
2022-08-28T23:58:36.353Z,13.84
